Latest Weather Observations for Sydney - Observatory Hill

IDN60801

Issued at 7:35 pm EST Thursday 18 September 2014 (issued every 30 minutes, with the page automatically refreshed every 10 minutes)

About weather observations | Map of weather stations | Latest weather observations for NSW | Other Formats
Station Details ID: 066062 Name: SYDNEY (OBSERVATORY HILL) Lat: -33.86 Lon: 151.21 Height: 39.0 m
Data from the previous 72 hours. | See also: Recent months at Sydney - Observatory Hill

* Apparent temperature (App Temp) for Sydney - Observatory Hill is calculated using temperature observations collected at Sydney - Observatory Hill and wind observations collected at Fort Denison, as wind observations are not currently provided for Sydney - Observatory Hill.

Date/Time
EST
Temp
°C
App
Temp
°C
Dew
Point
Rel
Hum
%
Delta-T
°C
Wind Press
QNH
hPa
Press
MSL
hPa
Rain
since 9 am
mm
Dir
 
Spd
km/h
Gust
km/h
Spd
kts
Gust
kts
18/07:30pm 14.9 11.8 3.4 46 5.2 S 9 - 5 - 1020.3 1020.2 0.0
18/07:00pm 14.9 11.3 3.1 45 5.3 SSE 11 - 6 - 1019.9 1019.8 0.0
18/06:30pm 14.9 10.9 2.8 44 5.4 SSE 13 - 7 - 1019.4 1019.4 0.0
18/06:00pm 14.8 11.5 2.4 43 5.5 SSE 9 - 5 - 1019.2 1019.2 0.0
18/05:30pm 15.2 11.1 2.1 41 5.8 SSE 13 - 7 - 1018.8 1018.8 0.0
18/05:00pm 15.6 10.7 1.7 39 6.1 SE 17 - 9 - 1018.4 1018.4 0.0
18/04:30pm 15.8 10.9 2.2 40 6.1 SE 17 - 9 - 1018.0 1018.0 0.0
18/04:00pm 17.1 11.5 1.1 34 7.0 SE 20 - 11 - 1017.5 1017.5 0.0
18/03:30pm 17.5 10.7 1.1 33 7.3 S 26 - 14 - 1017.4 1017.4 0.0
18/03:00pm 18.4 12.0 1.0 31 7.7 SE 24 - 13 - 1017.1 1017.1 0.0
18/02:30pm 19.9 14.5 2.3 31 8.1 SE 20 - 11 - 1017.0 1017.0 0.0
18/02:00pm 18.8 13.3 0.4 29 8.1 SE 19 - 10 - 1017.1 1017.1 0.0
18/01:30pm 18.7 12.9 2.1 33 7.6 ESE 22 - 12 - 1017.1 1017.1 0.0
18/01:00pm 17.6 11.2 -1.6 27 8.0 ESE 22 - 12 - 1017.3 1017.3 0.0
18/12:30pm 20.0 14.2 -0.1 26 8.9 ESE 20 - 11 - 1017.6 1017.6 0.0
18/12:00pm 19.2 13.8 -1.3 25 8.8 ESE 17 - 9 - 1017.8 1017.8 0.0
18/11:30am 18.7 13.9 -2.8 23 8.9 SSW 13 - 7 - 1017.9 1017.9 0.0
18/11:00am 18.4 13.0 -1.4 26 8.4 SW 17 - 9 - 1018.1 1018.1 0.0
18/10:30am 18.4 12.4 -1.4 26 8.4 SSW 20 - 11 - 1018.3 1018.3 0.0
18/10:00am 17.7 12.0 0.8 32 7.4 WSW 20 - 11 - 1018.4 1018.4 0.0
18/09:30am 16.6 12.0 -1.0 30 7.4 SSW 13 - 7 - 1018.5 1018.5 0.0
18/09:00am 15.6 8.2 -0.6 33 6.8 W 28 - 15 - 1018.6 1018.6 0.0
18/08:30am 14.8 7.7 -0.9 34 6.5 WSW 26 - 14 - 1018.3 1018.3 0.0
18/08:00am 14.2 6.0 -1.0 35 6.2 WSW 32 - 17 - 1018.0 1018.0 0.0
18/07:30am 14.3 6.9 -0.6 36 6.2 W 28 - 15 - 1017.8 1017.8 0.0
18/07:00am 13.7 6.7 -0.3 38 5.8 WSW 26 - 14 - 1017.5 1017.5 0.0
18/06:30am 13.0 6.5 0.4 42 5.3 WSW 24 - 13 - 1017.2 1017.2 0.0
18/06:00am 12.6 8.3 1.0 45 4.9 WSW 13 - 7 - 1017.0 1017.0 0.0
18/05:30am 12.3 8.0 1.3 47 4.7 W 13 - 7 - 1016.7 1016.7 0.0
18/05:00am 12.5 7.9 1.5 47 4.7 WSW 15 - 8 - 1016.6 1016.6 0.0
18/04:30am 12.5 7.9 1.5 47 4.7 WSW 15 - 8 - 1016.3 1016.3 0.0
18/04:00am 12.8 8.2 1.5 46 4.8 SSW 15 - 8 - 1016.1 1016.1 0.0
18/03:30am 13.1 8.1 1.5 45 5.0 SSW 17 - 9 - 1015.7 1015.7 0.0
18/03:00am 12.9 9.5 1.9 47 4.7 WSW 9 - 5 - 1015.7 1015.7 0.0
18/02:30am 13.0 8.7 1.0 44 5.1 WSW 13 - 7 - 1015.5 1015.5 0.0
18/02:00am 13.3 8.7 1.3 44 5.1 W 15 - 8 - 1015.3 1015.3 0.0
18/01:30am 13.4 8.5 2.0 46 5.0 W 17 - 9 - 1015.3 1015.3 0.0
18/01:00am 13.9 8.9 1.2 42 5.5 W 17 - 9 - 1015.4 1015.4 0.0
18/12:30am 14.2 8.8 1.5 42 5.5 W 19 - 10 - 1015.3 1015.3 0.0
18/12:00am 14.7 8.8 1.6 41 5.7 W 22 - 12 - 1015.1 1015.1 0.0
 
Date/Time
EST
Temp
°C
App
Temp
°C
Dew
Point
Rel
Hum
%
Delta-T
°C
Wind Press
QNH
hPa
Press
MSL
hPa
Rain
since 9 am
mm
Dir
 
Spd
km/h
Gust
km/h
Spd
kts
Gust
kts
17/11:30pm 15.1 9.1 0.9 38 6.1 W 22 - 12 - 1014.9 1014.9 0.0
17/11:00pm 15.4 9.2 1.9 40 6.0 W 24 - 13 - 1014.9 1014.9 0.0
17/10:30pm 15.7 9.4 1.8 39 6.1 W 24 - 13 - 1014.8 1014.8 0.0
17/10:00pm 15.8 10.0 2.2 40 6.1 WSW 22 - 12 - 1014.6 1014.6 0.0
17/09:30pm 15.8 11.0 2.6 41 5.9 W 17 - 9 - 1014.5 1014.5 0.0
17/09:00pm 16.0 12.0 3.1 42 5.9 W 13 - 7 - 1014.2 1014.2 0.0
17/08:30pm 16.3 11.5 2.7 40 6.2 W 17 - 9 - 1014.0 1014.0 0.0
17/08:00pm 16.8 11.9 2.0 37 6.6 W 17 - 9 - 1013.8 1013.8 0.0
17/07:30pm 17.2 12.2 1.6 35 7.0 WSW 17 - 9 - 1013.6 1013.6 0.0
17/07:00pm 17.6 12.0 1.2 33 7.3 W 20 - 11 - 1013.0 1013.0 0.0
17/06:30pm 17.9 11.1 1.0 32 7.5 W 26 - 14 - 1012.5 1012.5 0.0
17/06:00pm 18.4 10.8 0.5 30 7.9 W 30 - 16 - 1011.9 1011.9 0.0
17/05:30pm 18.9 10.9 0.5 29 8.1 W 32 - 17 - 1011.5 1011.5 0.0
17/05:00pm 19.3 11.9 -0.7 26 8.7 W 28 - 15 - 1011.3 1011.3 0.0
17/04:30pm 19.3 11.1 -0.7 26 8.7 WSW 32 - 17 - 1010.9 1010.9 0.0
17/04:00pm 20.0 11.4 0.5 27 8.7 W 35 - 19 - 1010.5 1010.5 0.0
17/03:30pm 21.0 13.0 0.2 25 9.3 WSW 32 - 17 - 1010.2 1010.2 0.0
17/03:00pm 20.9 13.2 0.2 25 9.3 WSW 30 - 16 - 1010.1 1010.1 0.0
17/02:30pm 21.5 13.5 0.7 25 9.4 W 32 - 17 - 1009.9 1009.9 0.0
17/02:00pm 21.7 14.7 1.9 27 9.2 W 28 - 15 - 1009.9 1009.9 0.0
17/01:30pm 21.4 15.4 1.1 26 9.3 W 22 - 12 - 1010.2 1010.2 0.0
17/01:00pm 21.0 14.7 1.3 27 9.0 WSW 24 - 13 - 1010.2 1010.2 0.0
17/12:30pm 21.0 13.8 0.8 26 9.2 W 28 - 15 - 1010.3 1010.3 0.0
17/12:00pm 21.2 14.9 1.5 27 9.1 WSW 24 - 13 - 1010.8 1010.8 0.0
17/11:30am 20.4 12.5 1.3 28 8.7 W 32 - 17 - 1010.9 1010.9 0.0
17/11:00am 19.6 11.0 0.1 27 8.6 W 35 - 19 - 1011.3 1011.3 0.0
17/10:30am 19.2 12.2 1.7 31 8.0 W 28 - 15 - 1011.3 1011.3 0.0
17/10:00am 18.1 9.5 0.3 30 7.8 WSW 35 - 19 - 1011.6 1011.6 0.0
17/09:30am 18.1 9.7 1.6 33 7.4 W 35 - 19 - 1012.0 1012.0 0.0
17/09:00am 17.7 9.5 2.5 36 6.9 W 35 - 19 - 1012.2 1012.2 -
17/08:30am 17.0 9.5 3.3 40 6.3 W 32 - 17 - 1012.2 1012.2 -
17/08:00am 16.5 9.3 3.2 41 6.1 W 30 - 16 - 1012.1 1012.1 -
17/07:30am 16.4 11.1 4.8 46 5.5 W 22 - 12 - 1012.2 1012.2 -
17/07:00am 15.6 10.7 4.9 49 5.1 W 20 - 11 - 1012.1 1012.1 -
17/06:30am 14.6 9.5 5.9 56 4.2 W 22 - 12 - 1011.7 1011.7 -
17/06:00am 13.7 10.3 7.5 66 3.0 W 15 - 8 - 1011.3 1011.3 -
17/05:30am 13.7 11.3 7.0 64 3.3 W 9 - 5 - 1010.9 1010.9 -
17/05:00am 13.7 10.9 7.0 64 3.3 W 11 - 6 - 1010.5 1010.5 -
17/04:30am 13.7 11.7 7.2 65 3.2 W 7 - 4 - 1010.0 1010.0 -
17/04:00am 14.0 12.0 7.1 63 3.4 W 7 - 4 - 1009.9 1009.9 -
17/03:30am 14.4 12.0 7.2 62 3.5 WNW 9 - 5 - 1009.6 1009.6 -
17/03:00am 14.6 12.2 7.2 61 3.6 WNW 9 - 5 - 1009.6 1009.6 0.0
17/02:30am 15.1 12.0 7.2 59 3.9 W 13 - 7 - 1009.5 1009.5 -
17/02:00am 15.1 11.9 6.9 58 4.0 WNW 13 - 7 - 1009.5 1009.5 -
17/01:30am 15.3 12.5 6.8 57 4.2 WNW 11 - 6 - 1009.5 1009.5 -
17/01:00am 15.4 11.8 6.9 57 4.2 WNW 15 - 8 - 1009.6 1009.6 -
17/12:30am 15.8 11.3 7.0 56 4.3 W 20 - 11 - 1009.7 1009.7 -
17/12:00am 15.9 11.6 7.1 56 4.4 W 19 - 10 - 1009.6 1009.6 -
 
Date/Time
EST
Temp
°C
App
Temp
°C
Dew
Point
Rel
Hum
%
Delta-T
°C
Wind Press
QNH
hPa
Press
MSL
hPa
Rain
since 9 am
mm
Dir
 
Spd
km/h
Gust
km/h
Spd
kts
Gust
kts
16/11:30pm 16.0 11.4 6.7 54 4.6 W 20 - 11 - 1009.5 1009.5 -
16/11:00pm 16.1 12.1 6.8 54 4.6 WNW 17 - 9 - 1009.5 1009.5 -
16/10:30pm 16.0 12.8 6.7 54 4.6 WNW 13 - 7 - 1009.5 1009.5 -
16/10:00pm 16.5 13.2 6.3 51 5.0 WNW 13 - 7 - 1009.6 1009.6 -
16/09:30pm 16.8 12.2 6.6 51 5.0 W 20 - 11 - 1009.7 1009.7 -
16/09:00pm 17.4 11.3 6.6 49 5.4 WNW 28 - 15 - 1009.5 1009.5 -
16/08:30pm 17.9 13.5 6.4 47 5.7 WNW 19 - 10 - 1009.6 1009.6 -
16/08:00pm 18.2 12.7 6.1 45 6.0 W 24 - 13 - 1009.3 1009.3 -
16/07:30pm 18.6 13.8 5.8 43 6.3 W 20 - 11 - 1009.1 1009.1 -
16/07:00pm 18.9 12.9 5.4 41 6.6 WNW 26 - 14 - 1008.8 1008.8 -
16/06:30pm 19.8 13.9 5.8 40 6.9 W 26 - 14 - 1008.3 1008.3 -
16/06:00pm 20.4 13.9 4.8 36 7.6 W 28 - 15 - 1007.5 1007.5 -
16/05:30pm 20.9 13.5 4.9 35 7.8 W 33 - 18 - 1006.9 1006.9 -
16/05:00pm 21.5 16.8 5.0 34 8.2 W 19 - 10 - 1006.6 1006.6 -
16/04:30pm 21.1 20.9 13.5 62 4.4 SE 7 - 4 - 1006.3 1006.2 -
16/04:00pm 20.8 21.5 14.5 67 3.7 ENE 4 - 2 - 1006.0 1005.9 -
16/03:30pm 20.4 18.9 14.1 67 3.7 N 15 - 8 - 1005.7 1005.6 -
16/03:00pm 20.6 - 14.0 66 3.8 - - - - - 1005.6 1005.5 -
16/02:30pm 19.5 17.1 13.7 69 3.3 NNE 19 - 10 - 1005.7 1005.6 0.2
16/02:00pm 19.6 16.4 13.1 66 3.7 NE 22 - 12 - 1006.1 1006.0 0.2
16/01:30pm 19.9 17.2 13.4 66 3.7 NE 20 - 11 - 1006.3 1006.2 0.2
16/01:00pm 20.1 16.6 13.3 65 3.9 NE 24 - 13 - 1006.6 1006.6 0.2
16/12:30pm 20.6 16.7 13.3 63 4.2 ENE 26 - 14 - 1007.1 1007.1 0.2
16/12:00pm 20.4 16.4 12.9 62 4.3 NE 26 - 14 - 1007.8 1007.8 0.2
16/11:30am 20.3 16.9 13.7 66 3.8 NE 24 - 13 - 1008.6 1008.6 0.0
16/11:00am 20.1 17.7 15.3 74 2.8 NNE 22 - 12 - 1009.4 1009.4 0.0
16/10:30am 19.0 17.0 14.9 77 2.4 NNE 19 - 10 - 1010.0 1010.0 0.0
16/10:00am 19.7 16.7 14.7 73 2.9 NNE 24 - 13 - 1010.1 1010.1 0.0
16/09:30am 19.1 15.5 14.1 73 2.9 NE 26 - 14 - 1009.9 1009.9 0.0
16/09:00am 18.6 14.7 14.3 76 2.5 NE 28 - 15 - 1009.9 1009.9 0.0
16/08:30am 18.8 16.4 14.3 75 2.6 NE 20 - 11 - 1010.8 1010.8 0.0
16/08:00am 17.6 16.2 13.5 77 2.3 N 13 - 7 - 1012.1 1012.1 0.0
16/07:30am 16.3 16.0 13.2 82 1.7 NNW 7 - 4 - 1011.5 1011.5 0.0
16/07:00am 15.9 15.7 13.0 83 1.6 W 6 - 3 - 1011.8 1011.8 0.0
16/06:30am 15.4 14.9 12.5 83 1.6 NW 7 - 4 - 1011.8 1011.8 0.0
16/06:00am 15.8 15.3 12.7 82 1.7 WNW 7 - 4 - 1011.7 1011.7 0.0
16/05:30am 16.0 15.2 12.9 82 1.7 ENE 9 - 5 - 1011.7 1011.7 0.0
16/05:00am 15.3 13.6 12.6 84 1.5 NE 13 - 7 - 1012.0 1012.0 0.0
16/04:30am 15.5 14.5 12.3 81 1.8 NNW 9 - 5 - 1013.3 1013.3 0.0
16/04:00am 16.2 15.3 12.7 80 1.9 NNW 9 - 5 - 1012.8 1012.8 0.0
16/03:30am 16.8 15.2 12.9 78 2.2 NNE 13 - 7 - 1012.4 1012.4 0.0
16/03:00am 16.7 15.1 12.8 78 2.2 NE 13 - 7 - 1012.3 1012.3 0.0
16/02:30am 16.8 14.5 12.9 78 2.2 NE 17 - 9 - 1012.8 1012.8 0.0
16/02:00am 16.6 14.6 12.8 78 2.1 NE 15 - 8 - 1012.7 1012.7 0.0
16/01:30am 16.5 14.9 12.7 78 2.1 NNE 13 - 7 - 1013.4 1013.4 0.0
16/01:00am 16.3 14.2 12.5 78 2.1 ENE 15 - 8 - 1013.8 1013.8 0.0
16/12:30am 16.2 15.7 12.2 77 2.2 NE 6 - 3 - 1014.5 1014.5 0.0
16/12:00am 16.7 13.7 12.0 74 2.6 WNW 19 - 10 - 1016.2 1016.2 0.0
 
Date/Time
EST
Temp
°C
App
Temp
°C
Dew
Point
Rel
Hum
%
Delta-T
°C
Wind Press
QNH
hPa
Press
MSL
hPa
Rain
since 9 am
mm
Dir
 
Spd
km/h
Gust
km/h
Spd
kts
Gust
kts
15/11:30pm 17.2 16.1 11.9 71 2.9 NNE 9 - 5 - 1015.4 1015.4 0.0
15/11:00pm 17.5 15.2 11.8 69 3.1 NNE 15 - 8 - 1015.6 1015.6 0.0
15/10:30pm 17.5 16.0 11.8 69 3.1 NE 11 - 6 - 1015.6 1015.6 0.0
15/10:00pm 17.5 16.4 11.8 69 3.1 NE 9 - 5 - 1016.0 1016.0 0.0
15/09:30pm 17.6 16.8 11.8 69 3.2 NE 7 - 4 - 1016.2 1016.2 0.0
15/09:00pm 17.5 15.7 12.0 70 3.0 ENE 13 - 7 - 1016.0 1016.0 0.0
15/08:30pm 17.4 14.8 11.9 70 3.0 ENE 17 - 9 - 1016.0 1016.0 0.0
15/08:00pm 17.4 14.4 11.9 70 3.0 ENE 19 - 10 - 1015.9 1015.9 0.0

Other Formats:

Comma delimited format used in spreadsheet applications
http://www.bom.gov.au/fwo/IDN60801/IDN60801.94768.axf

JavaScript Object Notation format (JSON) in row-major order
http://www.bom.gov.au/fwo/IDN60801/IDN60801.94768.json